sensor_id;sensor_type;location;lat;lon;timestamp;P1;durP1;ratioP1;P2;durP2;ratioP2
3299;SDS011;1662;49.310;8.134;2024-01-15T00:00:15;28.57;;;13.90;;
3299;SDS011;1662;49.310;8.134;2024-01-15T00:02:41;30.55;;;13.90;;
3299;SDS011;1662;49.310;8.134;2024-01-15T00:05:07;26.20;;;13.33;;
3299;SDS011;1662;49.310;8.134;2024-01-15T00:07:32;25.43;;;13.83;;
3299;SDS011;1662;49.310;8.134;2024-01-15T00:09:58;29.40;;;13.87;;
3299;SDS011;1662;49.310;8.134;2024-01-15T00:12:24;28.77;;;14.70;;
3299;SDS011;1662;49.310;8.134;2024-01-15T00:14:49;22.40;;;13.53;;
3299;SDS011;1662;49.310;8.134;2024-01-15T00:17:17;25.85;;;13.85;;
3299;SDS011;1662;49.310;8.134;2024-01-15T00:19:43;32.80;;;14.70;;
3299;SDS011;1662;49.310;8.134;2024-01-15T00:22:11;26.98;;;13.80;;
3299;SDS011;1662;49.310;8.134;2024-01-15T00:24:36;35.50;;;14.50;;
3299;SDS011;1662;49.310;8.134;2024-01-15T00:27:04;30.13;;;13.10;;
3299;SDS011;1662;49.310;8.134;2024-01-15T00:29:30;27.98;;;13.27;;
3299;SDS011;1662;49.310;8.134;2024-01-15T00:31:55;32.77;;;14.20;;
3299;SDS011;1662;49.310;8.134;2024-01-15T00:34:21;27.73;;;13.43;;
3299;SDS011;1662;49.310;8.134;2024-01-15T00:36:46;28.30;;;13.77;;
3299;SDS011;1662;49.310;8.134;2024-01-15T00:39:12;27.60;;;13.90;;
3299;SDS011;1662;49.310;8.134;2024-01-15T00:41:38;27.17;;;13.90;;
3299;SDS011;1662;49.310;8.134;2024-01-15T00:44:03;21.60;;;11.53;;
3299;SDS011;1662;49.310;8.134;2024-01-15T00:46:29;27.97;;;14.20;;
3299;SDS011;1662;49.310;8.134;2024-01-15T00:48:54;26.80;;;13.70;;
3299;SDS011;1662;49.310;8.134;2024-01-15T00:51:20;30.70;;;12.83;;
3299;SDS011;1662;49.310;8.134;2024-01-15T00:53:46;23.30;;;11.67;;
3299;SDS011;1662;49.310;8.134;2024-01-15T00:56:11;26.00;;;11.87;;
3299;SDS011;1662;49.310;8.134;2024-01-15T00:58:37;25.00;;;13.17;;
3299;SDS011;1662;49.310;8.134;2024-01-15T01:01:03;23.43;;;13.33;;
3299;SDS011;1662;49.310;8.134;2024-01-15T01:03:28;23.53;;;12.63;;
3299;SDS011;1662;49.310;8.134;2024-01-15T01:05:56;22.45;;;11.75;;
3299;SDS011;1662;49.310;8.134;2024-01-15T01:08:22;23.13;;;12.30;;
3299;SDS011;1662;49.310;8.134;2024-01-15T01:10:47;24.67;;;11.70;;
3299;SDS011;1662;49.310;8.134;2024-01-15T01:13:13;26.00;;;11.50;;
3299;SDS011;1662;49.310;8.134;2024-01-15T01:15:39;20.90;;;10.77;;
3299;SDS011;1662;49.310;8.134;2024-01-15T01:18:04;20.53;;;11.00;;
3299;SDS011;1662;49.310;8.134;2024-01-15T01:20:30;21.20;;;11.53;;
3299;SDS011;1662;49.310;8.134;2024-01-15T01:22:55;24.67;;;11.47;;
3299;SDS011;1662;49.310;8.134;2024-01-15T01:25:21;18.97;;;10.00;;
3299;SDS011;1662;49.310;8.134;2024-01-15T01:27:47;24.67;;;10.20;;
3299;SDS011;1662;49.310;8.134;2024-01-15T01:30:15;22.13;;;11.07;;
3299;SDS011;1662;49.310;8.134;2024-01-15T01:32:40;14.73;;;10.03;;
3299;SDS011;1662;49.310;8.134;2024-01-15T01:35:06;19.53;;;10.70;;
3299;SDS011;1662;49.310;8.134;2024-01-15T01:37:31;17.07;;;10.13;;
3299;SDS011;1662;49.310;8.134;2024-01-15T01:39:58;16.73;;;9.20;;
3299;SDS011;1662;49.310;8.134;2024-01-15T01:42:23;16.03;;;8.83;;
3299;SDS011;1662;49.310;8.134;2024-01-15T01:44:49;17.07;;;8.87;;
3299;SDS011;1662;49.310;8.134;2024-01-15T01:47:14;18.63;;;9.90;;
3299;SDS011;1662;49.310;8.134;2024-01-15T01:49:40;15.53;;;9.33;;
3299;SDS011;1662;49.310;8.134;2024-01-15T01:52:07;13.77;;;7.90;;
3299;SDS011;1662;49.310;8.134;2024-01-15T01:54:34;14.90;;;8.35;;
3299;SDS011;1662;49.310;8.134;2024-01-15T01:57:02;16.05;;;9.50;;
3299;SDS011;1662;49.310;8.134;2024-01-15T01:59:29;26.48;;;9.65;;
3299;SDS011;1662;49.310;8.134;2024-01-15T02:01:56;22.25;;;10.18;;
3299;SDS011;1662;49.310;8.134;2024-01-15T02:04:24;16.92;;;9.10;;
3299;SDS011;1662;49.310;8.134;2024-01-15T02:06:53;17.95;;;10.70;;
3299;SDS011;1662;49.310;8.134;2024-01-15T02:09:18;18.10;;;8.90;;
3299;SDS011;1662;49.310;8.134;2024-01-15T02:11:47;18.60;;;9.73;;
3299;SDS011;1662;49.310;8.134;2024-01-15T02:14:13;19.08;;;10.63;;
3299;SDS011;1662;49.310;8.134;2024-01-15T02:16:39;20.25;;;10.88;;
3299;SDS011;1662;49.310;8.134;2024-01-15T02:19:05;19.40;;;11.03;;
3299;SDS011;1662;49.310;8.134;2024-01-15T02:21:31;20.63;;;10.80;;
3299;SDS011;1662;49.310;8.134;2024-01-15T02:23:57;21.90;;;11.15;;
3299;SDS011;1662;49.310;8.134;2024-01-15T02:26:23;20.10;;;10.70;;
3299;SDS011;1662;49.310;8.134;2024-01-15T02:28:49;21.87;;;9.97;;
3299;SDS011;1662;49.310;8.134;2024-01-15T02:31:16;21.33;;;10.40;;
3299;SDS011;1662;49.310;8.134;2024-01-15T02:33:44;21.80;;;10.55;;
3299;SDS011;1662;49.310;8.134;2024-01-15T02:36:11;19.08;;;10.40;;
3299;SDS011;1662;49.310;8.134;2024-01-15T02:38:37;19.50;;;10.33;;
3299;SDS011;1662;49.310;8.134;2024-01-15T02:41:02;28.67;;;11.57;;
3299;SDS011;1662;49.310;8.134;2024-01-15T02:43:28;26.63;;;10.90;;
3299;SDS011;1662;49.310;8.134;2024-01-15T02:45:53;22.20;;;10.83;;
3299;SDS011;1662;49.310;8.134;2024-01-15T02:48:19;17.93;;;10.63;;
3299;SDS011;1662;49.310;8.134;2024-01-15T02:50:45;18.20;;;10.73;;
3299;SDS011;1662;49.310;8.134;2024-01-15T02:53:10;23.37;;;10.67;;
3299;SDS011;1662;49.310;8.134;2024-01-15T02:55:36;21.50;;;11.40;;
3299;SDS011;1662;49.310;8.134;2024-01-15T02:58:01;22.57;;;11.97;;
3299;SDS011;1662;49.310;8.134;2024-01-15T03:00:28;23.80;;;12.25;;
3299;SDS011;1662;49.310;8.134;2024-01-15T03:02:56;21.70;;;11.97;;
3299;SDS011;1662;49.310;8.134;2024-01-15T03:05:21;22.33;;;11.27;;
3299;SDS011;1662;49.310;8.134;2024-01-15T03:07:47;22.17;;;11.83;;
3299;SDS011;1662;49.310;8.134;2024-01-15T03:10:12;23.90;;;12.53;;
3299;SDS011;1662;49.310;8.134;2024-01-15T03:12:38;21.43;;;10.20;;
3299;SDS011;1662;49.310;8.134;2024-01-15T03:15:04;22.20;;;11.30;;
3299;SDS011;1662;49.310;8.134;2024-01-15T03:17:30;21.52;;;11.40;;
3299;SDS011;1662;49.310;8.134;2024-01-15T03:19:55;22.33;;;11.97;;
3299;SDS011;1662;49.310;8.134;2024-01-15T03:22:21;21.57;;;12.00;;
3299;SDS011;1662;49.310;8.134;2024-01-15T03:24:46;20.73;;;11.50;;
3299;SDS011;1662;49.310;8.134;2024-01-15T03:27:12;19.93;;;11.03;;
3299;SDS011;1662;49.310;8.134;2024-01-15T03:29:39;22.73;;;11.80;;
3299;SDS011;1662;49.310;8.134;2024-01-15T03:32:05;22.63;;;11.52;;
3299;SDS011;1662;49.310;8.134;2024-01-15T03:34:30;19.77;;;10.97;;
3299;SDS011;1662;49.310;8.134;2024-01-15T03:36:56;25.67;;;12.17;;
3299;SDS011;1662;49.310;8.134;2024-01-15T03:39:24;23.95;;;11.38;;
3299;SDS011;1662;49.310;8.134;2024-01-15T03:41:50;21.57;;;10.90;;
3299;SDS011;1662;49.310;8.134;2024-01-15T03:44:15;19.37;;;10.63;;
3299;SDS011;1662;49.310;8.134;2024-01-15T03:46:41;24.00;;;13.30;;
3299;SDS011;1662;49.310;8.134;2024-01-15T03:49:06;20.90;;;11.27;;
3299;SDS011;1662;49.310;8.134;2024-01-15T03:51:32;23.10;;;11.00;;
3299;SDS011;1662;49.310;8.134;2024-01-15T03:53:57;20.63;;;11.17;;
3299;SDS011;1662;49.310;8.134;2024-01-15T03:56:23;19.70;;;11.33;;
3299;SDS011;1662;49.310;8.134;2024-01-15T03:58:49;18.10;;;10.00;;
3299;SDS011;1662;49.310;8.134;2024-01-15T04:01:14;19.97;;;10.97;;
3299;SDS011;1662;49.310;8.134;2024-01-15T04:03:40;22.73;;;10.47;;
3299;SDS011;1662;49.310;8.134;2024-01-15T04:06:05;20.17;;;10.23;;
3299;SDS011;1662;49.310;8.134;2024-01-15T04:08:31;20.77;;;10.73;;
3299;SDS011;1662;49.310;8.134;2024-01-15T04:10:57;22.90;;;11.00;;
3299;SDS011;1662;49.310;8.134;2024-01-15T04:13:22;24.77;;;10.27;;
3299;SDS011;1662;49.310;8.134;2024-01-15T04:15:48;20.27;;;10.60;;
3299;SDS011;1662;49.310;8.134;2024-01-15T04:18:15;16.87;;;9.50;;
3299;SDS011;1662;49.310;8.134;2024-01-15T04:20:42;24.42;;;10.52;;
3299;SDS011;1662;49.310;8.134;2024-01-15T04:23:08;15.67;;;9.37;;
3299;SDS011;1662;49.310;8.134;2024-01-15T04:25:33;20.57;;;9.83;;
3299;SDS011;1662;49.310;8.134;2024-01-15T04:27:59;19.97;;;10.30;;
3299;SDS011;1662;49.310;8.134;2024-01-15T04:30:25;19.47;;;9.30;;
3299;SDS011;1662;49.310;8.134;2024-01-15T04:32:50;16.97;;;9.87;;
3299;SDS011;1662;49.310;8.134;2024-01-15T04:35:16;13.10;;;8.33;;
3299;SDS011;1662;49.310;8.134;2024-01-15T04:37:44;14.50;;;8.50;;
3299;SDS011;1662;49.310;8.134;2024-01-15T04:40:10;15.15;;;8.48;;
3299;SDS011;1662;49.310;8.134;2024-01-15T04:42:36;13.25;;;8.52;;
3299;SDS011;1662;49.310;8.134;2024-01-15T04:45:01;14.70;;;8.40;;
3299;SDS011;1662;49.310;8.134;2024-01-15T04:47:27;16.47;;;7.87;;
3299;SDS011;1662;49.310;8.134;2024-01-15T04:49:53;15.47;;;7.80;;
3299;SDS011;1662;49.310;8.134;2024-01-15T04:52:18;16.13;;;9.20;;
3299;SDS011;1662;49.310;8.134;2024-01-15T04:54:44;14.40;;;8.97;;
3299;SDS011;1662;49.310;8.134;2024-01-15T04:57:12;16.60;;;9.90;;
3299;SDS011;1662;49.310;8.134;2024-01-15T04:59:37;17.40;;;9.33;;
3299;SDS011;1662;49.310;8.134;2024-01-15T05:02:03;15.03;;;8.43;;
3299;SDS011;1662;49.310;8.134;2024-01-15T05:04:31;16.90;;;8.77;;
3299;SDS011;1662;49.310;8.134;2024-01-15T05:06:57;17.42;;;9.07;;
3299;SDS011;1662;49.310;8.134;2024-01-15T05:09:25;15.60;;;9.60;;
3299;SDS011;1662;49.310;8.134;2024-01-15T05:11:51;17.30;;;9.80;;
3299;SDS011;1662;49.310;8.134;2024-01-15T05:14:16;15.27;;;9.10;;
3299;SDS011;1662;49.310;8.134;2024-01-15T05:16:48;13.63;;;8.80;;
3299;SDS011;1662;49.310;8.134;2024-01-15T05:19:14;18.55;;;10.45;;
3299;SDS011;1662;49.310;8.134;2024-01-15T05:21:40;17.53;;;9.80;;
3299;SDS011;1662;49.310;8.134;2024-01-15T05:24:06;17.83;;;9.40;;
3299;SDS011;1662;49.310;8.134;2024-01-15T05:26:32;18.17;;;9.63;;
3299;SDS011;1662;49.310;8.134;2024-01-15T05:28:58;18.83;;;9.73;;
3299;SDS011;1662;49.310;8.134;2024-01-15T05:31:24;21.23;;;11.95;;
3299;SDS011;1662;49.310;8.134;2024-01-15T05:33:50;18.80;;;11.87;;
3299;SDS011;1662;49.310;8.134;2024-01-15T05:36:15;19.70;;;11.77;;
3299;SDS011;1662;49.310;8.134;2024-01-15T05:38:41;23.50;;;13.50;;
3299;SDS011;1662;49.310;8.134;2024-01-15T05:41:07;23.00;;;12.80;;
3299;SDS011;1662;49.310;8.134;2024-01-15T05:43:32;22.70;;;11.60;;
3299;SDS011;1662;49.310;8.134;2024-01-15T05:45:58;18.87;;;12.37;;
3299;SDS011;1662;49.310;8.134;2024-01-15T05:48:23;23.33;;;12.27;;
3299;SDS011;1662;49.310;8.134;2024-01-15T05:50:49;22.20;;;12.50;;
3299;SDS011;1662;49.310;8.134;2024-01-15T05:53:15;23.90;;;13.57;;
3299;SDS011;1662;49.310;8.134;2024-01-15T05:55:40;22.77;;;13.10;;
3299;SDS011;1662;49.310;8.134;2024-01-15T05:58:06;23.23;;;12.90;;
3299;SDS011;1662;49.310;8.134;2024-01-15T06:00:32;25.30;;;15.03;;
3299;SDS011;1662;49.310;8.134;2024-01-15T06:03:01;18.92;;;12.30;;
3299;SDS011;1662;49.310;8.134;2024-01-15T06:05:26;20.87;;;12.80;;
3299;SDS011;1662;49.310;8.134;2024-01-15T06:07:52;25.93;;;14.17;;
3299;SDS011;1662;49.310;8.134;2024-01-15T06:10:18;22.50;;;13.00;;
3299;SDS011;1662;49.310;8.134;2024-01-15T06:12:43;19.33;;;12.10;;
3299;SDS011;1662;49.310;8.134;2024-01-15T06:15:09;27.40;;;13.47;;
3299;SDS011;1662;49.310;8.134;2024-01-15T06:17:35;22.27;;;12.70;;
3299;SDS011;1662;49.310;8.134;2024-01-15T06:20:01;23.93;;;13.53;;
3299;SDS011;1662;49.310;8.134;2024-01-15T06:22:29;22.48;;;12.55;;
3299;SDS011;1662;49.310;8.134;2024-01-15T06:24:55;20.57;;;12.67;;
3299;SDS011;1662;49.310;8.134;2024-01-15T06:27:22;19.02;;;11.75;;
3299;SDS011;1662;49.310;8.134;2024-01-15T06:29:49;21.37;;;11.90;;
3299;SDS011;1662;49.310;8.134;2024-01-15T06:32:14;19.45;;;12.23;;
3299;SDS011;1662;49.310;8.134;2024-01-15T06:34:40;23.00;;;12.17;;
3299;SDS011;1662;49.310;8.134;2024-01-15T06:37:06;20.37;;;12.27;;
3299;SDS011;1662;49.310;8.134;2024-01-15T06:39:31;20.93;;;11.13;;
3299;SDS011;1662;49.310;8.134;2024-01-15T06:41:57;18.77;;;10.90;;
3299;SDS011;1662;49.310;8.134;2024-01-15T06:44:22;23.17;;;10.90;;
3299;SDS011;1662;49.310;8.134;2024-01-15T06:46:48;19.30;;;10.73;;
3299;SDS011;1662;49.310;8.134;2024-01-15T06:49:14;15.07;;;9.60;;
3299;SDS011;1662;49.310;8.134;2024-01-15T06:51:40;17.88;;;10.77;;
3299;SDS011;1662;49.310;8.134;2024-01-15T06:54:06;19.85;;;10.93;;
3299;SDS011;1662;49.310;8.134;2024-01-15T06:56:32;17.93;;;9.90;;
3299;SDS011;1662;49.310;8.134;2024-01-15T06:58:58;17.07;;;11.03;;
3299;SDS011;1662;49.310;8.134;2024-01-15T07:01:25;17.38;;;10.98;;
3299;SDS011;1662;49.310;8.134;2024-01-15T07:03:51;16.83;;;9.30;;
3299;SDS011;1662;49.310;8.134;2024-01-15T07:06:17;16.23;;;10.03;;
3299;SDS011;1662;49.310;8.134;2024-01-15T07:08:42;17.07;;;10.90;;
3299;SDS011;1662;49.310;8.134;2024-01-15T07:11:08;19.47;;;12.77;;
3299;SDS011;1662;49.310;8.134;2024-01-15T07:13:34;19.00;;;10.80;;
3299;SDS011;1662;49.310;8.134;2024-01-15T07:16:01;15.00;;;11.30;;
3299;SDS011;1662;49.310;8.134;2024-01-15T07:18:27;18.27;;;10.20;;
3299;SDS011;1662;49.310;8.134;2024-01-15T07:20:52;16.10;;;10.23;;
3299;SDS011;1662;49.310;8.134;2024-01-15T07:23:18;17.17;;;10.77;;
3299;SDS011;1662;49.310;8.134;2024-01-15T07:25:44;18.40;;;10.83;;
3299;SDS011;1662;49.310;8.134;2024-01-15T07:28:10;16.73;;;11.17;;
3299;SDS011;1662;49.310;8.134;2024-01-15T07:30:35;20.75;;;10.55;;
3299;SDS011;1662;49.310;8.134;2024-01-15T07:33:03;18.40;;;10.43;;
3299;SDS011;1662;49.310;8.134;2024-01-15T07:35:29;13.55;;;9.63;;
3299;SDS011;1662;49.310;8.134;2024-01-15T07:37:55;18.13;;;10.73;;
3299;SDS011;1662;49.310;8.134;2024-01-15T07:40:21;15.63;;;10.03;;
3299;SDS011;1662;49.310;8.134;2024-01-15T07:42:46;17.10;;;9.70;;
3299;SDS011;1662;49.310;8.134;2024-01-15T07:45:12;15.87;;;10.03;;
3299;SDS011;1662;49.310;8.134;2024-01-15T07:47:38;15.00;;;10.87;;
3299;SDS011;1662;49.310;8.134;2024-01-15T07:50:04;14.90;;;9.80;;
3299;SDS011;1662;49.310;8.134;2024-01-15T07:52:30;13.50;;;8.50;;
3299;SDS011;1662;49.310;8.134;2024-01-15T07:54:56;14.93;;;10.38;;
3299;SDS011;1662;49.310;8.134;2024-01-15T07:57:22;17.97;;;10.30;;
3299;SDS011;1662;49.310;8.134;2024-01-15T07:59:47;12.50;;;8.90;;
3299;SDS011;1662;49.310;8.134;2024-01-15T08:02:13;17.47;;;11.10;;
3299;SDS011;1662;49.310;8.134;2024-01-15T08:04:39;16.23;;;9.50;;
3299;SDS011;1662;49.310;8.134;2024-01-15T08:07:07;13.10;;;9.47;;
3299;SDS011;1662;49.310;8.134;2024-01-15T08:09:33;13.77;;;10.10;;
3299;SDS011;1662;49.310;8.134;2024-01-15T08:11:59;13.15;;;9.15;;
3299;SDS011;1662;49.310;8.134;2024-01-15T08:14:25;15.13;;;10.20;;
3299;SDS011;1662;49.310;8.134;2024-01-15T08:16:50;13.13;;;8.93;;
3299;SDS011;1662;49.310;8.134;2024-01-15T08:19:18;12.80;;;8.70;;
3299;SDS011;1662;49.310;8.134;2024-01-15T08:21:45;17.63;;;9.40;;
3299;SDS011;1662;49.310;8.134;2024-01-15T08:24:10;13.77;;;9.50;;
3299;SDS011;1662;49.310;8.134;2024-01-15T08:26:36;13.73;;;9.50;;
3299;SDS011;1662;49.310;8.134;2024-01-15T08:29:02;16.47;;;9.83;;
3299;SDS011;1662;49.310;8.134;2024-01-15T08:31:27;14.60;;;10.57;;
3299;SDS011;1662;49.310;8.134;2024-01-15T08:33:53;20.00;;;11.07;;
3299;SDS011;1662;49.310;8.134;2024-01-15T08:36:19;17.70;;;10.77;;
3299;SDS011;1662;49.310;8.134;2024-01-15T08:38:44;19.87;;;11.57;;
3299;SDS011;1662;49.310;8.134;2024-01-15T08:41:10;19.87;;;10.67;;
3299;SDS011;1662;49.310;8.134;2024-01-15T08:43:35;18.60;;;11.00;;
3299;SDS011;1662;49.310;8.134;2024-01-15T08:46:02;19.40;;;11.60;;
3299;SDS011;1662;49.310;8.134;2024-01-15T08:48:28;14.13;;;10.05;;
3299;SDS011;1662;49.310;8.134;2024-01-15T08:50:56;19.05;;;10.63;;
3299;SDS011;1662;49.310;8.134;2024-01-15T08:53:22;18.70;;;11.30;;
3299;SDS011;1662;49.310;8.134;2024-01-15T08:55:48;18.60;;;11.20;;
3299;SDS011;1662;49.310;8.134;2024-01-15T08:58:14;15.50;;;10.00;;
3299;SDS011;1662;49.310;8.134;2024-01-15T09:00:40;17.43;;;10.20;;
3299;SDS011;1662;49.310;8.134;2024-01-15T09:03:06;16.00;;;10.00;;
3299;SDS011;1662;49.310;8.134;2024-01-15T09:05:33;18.40;;;10.80;;
3299;SDS011;1662;49.310;8.134;2024-01-15T09:08:01;17.60;;;10.65;;
3299;SDS011;1662;49.310;8.134;2024-01-15T09:10:27;15.20;;;9.40;;
3299;SDS011;1662;49.310;8.134;2024-01-15T09:12:52;10.47;;;8.00;;
3299;SDS011;1662;49.310;8.134;2024-01-15T09:15:18;14.97;;;9.20;;
3299;SDS011;1662;49.310;8.134;2024-01-15T09:17:45;12.65;;;8.73;;
3299;SDS011;1662;49.310;8.134;2024-01-15T09:20:11;12.80;;;8.27;;
3299;SDS011;1662;49.310;8.134;2024-01-15T09:22:40;13.43;;;8.10;;
3299;SDS011;1662;49.310;8.134;2024-01-15T09:25:07;12.75;;;8.65;;
3299;SDS011;1662;49.310;8.134;2024-01-15T09:27:34;12.38;;;8.98;;
3299;SDS011;1662;49.310;8.134;2024-01-15T09:30:01;14.45;;;8.73;;
3299;SDS011;1662;49.310;8.134;2024-01-15T09:32:27;14.82;;;8.88;;
3299;SDS011;1662;49.310;8.134;2024-01-15T09:34:53;17.30;;;10.10;;
3299;SDS011;1662;49.310;8.134;2024-01-15T09:37:18;13.90;;;9.10;;
3299;SDS011;1662;49.310;8.134;2024-01-15T09:39:44;13.70;;;8.70;;
3299;SDS011;1662;49.310;8.134;2024-01-15T09:42:10;12.50;;;8.90;;
3299;SDS011;1662;49.310;8.134;2024-01-15T09:44:36;13.40;;;9.10;;
3299;SDS011;1662;49.310;8.134;2024-01-15T09:47:04;11.25;;;8.05;;
3299;SDS011;1662;49.310;8.134;2024-01-15T09:49:34;12.88;;;8.85;;
3299;SDS011;1662;49.310;8.134;2024-01-15T09:52:00;14.80;;;8.83;;
3299;SDS011;1662;49.310;8.134;2024-01-15T09:54:27;18.52;;;8.52;;
3299;SDS011;1662;49.310;8.134;2024-01-15T09:56:52;13.17;;;8.13;;
3299;SDS011;1662;49.310;8.134;2024-01-15T09:59:19;11.25;;;7.72;;
3299;SDS011;1662;49.310;8.134;2024-01-15T10:01:47;12.63;;;8.75;;
3299;SDS011;1662;49.310;8.134;2024-01-15T10:04:15;15.50;;;9.40;;
3299;SDS011;1662;49.310;8.134;2024-01-15T10:06:43;10.90;;;8.37;;
3299;SDS011;1662;49.310;8.134;2024-01-15T10:09:13;11.13;;;7.13;;
3299;SDS011;1662;49.310;8.134;2024-01-15T10:11:43;10.30;;;7.40;;
3299;SDS011;1662;49.310;8.134;2024-01-15T10:14:09;10.73;;;7.75;;
3299;SDS011;1662;49.310;8.134;2024-01-15T10:16:39;9.90;;;7.25;;
3299;SDS011;1662;49.310;8.134;2024-01-15T10:19:05;12.23;;;8.32;;
3299;SDS011;1662;49.310;8.134;2024-01-15T10:21:32;12.77;;;7.15;;
3299;SDS011;1662;49.310;8.134;2024-01-15T10:24:01;11.15;;;7.43;;
3299;SDS011;1662;49.310;8.134;2024-01-15T10:26:27;10.50;;;8.00;;
3299;SDS011;1662;49.310;8.134;2024-01-15T10:28:53;9.27;;;6.55;;
3299;SDS011;1662;49.310;8.134;2024-01-15T10:31:19;8.97;;;6.70;;
3299;SDS011;1662;49.310;8.134;2024-01-15T10:33:46;7.50;;;5.88;;
3299;SDS011;1662;49.310;8.134;2024-01-15T10:36:13;11.45;;;8.27;;
3299;SDS011;1662;49.310;8.134;2024-01-15T10:38:41;7.65;;;6.70;;
3299;SDS011;1662;49.310;8.134;2024-01-15T10:41:08;12.75;;;6.70;;
3299;SDS011;1662;49.310;8.134;2024-01-15T10:43:34;9.20;;;7.07;;
3299;SDS011;1662;49.310;8.134;2024-01-15T10:45:59;10.53;;;6.63;;
3299;SDS011;1662;49.310;8.134;2024-01-15T10:48:28;10.05;;;7.50;;
3299;SDS011;1662;49.310;8.134;2024-01-15T10:50:55;12.25;;;7.50;;
3299;SDS011;1662;49.310;8.134;2024-01-15T10:53:22;7.75;;;6.95;;
3299;SDS011;1662;49.310;8.134;2024-01-15T10:55:50;11.80;;;7.00;;
3299;SDS011;1662;49.310;8.134;2024-01-15T10:58:16;7.90;;;6.88;;
3299;SDS011;1662;49.310;8.134;2024-01-15T11:00:43;6.00;;;5.50;;
3299;SDS011;1662;49.310;8.134;2024-01-15T11:03:09;8.05;;;6.30;;
3299;SDS011;1662;49.310;8.134;2024-01-15T11:08:06;8.15;;;6.75;;
3299;SDS011;1662;49.310;8.134;2024-01-15T11:15:59;8.77;;;6.90;;
3299;SDS011;1662;49.310;8.134;2024-01-15T11:18:30;9.02;;;6.90;;
3299;SDS011;1662;49.310;8.134;2024-01-15T11:28:54;6.93;;;5.90;;
3299;SDS011;1662;49.310;8.134;2024-01-15T11:34:04;7.25;;;6.18;;
3299;SDS011;1662;49.310;8.134;2024-01-15T11:42:11;10.77;;;7.82;;
3299;SDS011;1662;49.310;8.134;2024-01-15T11:44:38;10.77;;;7.25;;
3299;SDS011;1662;49.310;8.134;2024-01-15T11:47:05;8.27;;;6.47;;
3299;SDS011;1662;49.310;8.134;2024-01-15T11:52:19;9.23;;;6.70;;
3299;SDS011;1662;49.310;8.134;2024-01-15T11:57:18;10.35;;;7.22;;
3299;SDS011;1662;49.310;8.134;2024-01-15T12:00:05;10.45;;;7.93;;
3299;SDS011;1662;49.310;8.134;2024-01-15T12:02:33;10.90;;;8.00;;
3299;SDS011;1662;49.310;8.134;2024-01-15T12:04:59;10.60;;;7.53;;
3299;SDS011;1662;49.310;8.134;2024-01-15T12:07:25;9.23;;;7.33;;
3299;SDS011;1662;49.310;8.134;2024-01-15T12:09:50;9.30;;;6.87;;
3299;SDS011;1662;49.310;8.134;2024-01-15T12:15:24;7.60;;;6.80;;
3299;SDS011;1662;49.310;8.134;2024-01-15T12:17:50;8.45;;;7.25;;
3299;SDS011;1662;49.310;8.134;2024-01-15T12:20:17;7.50;;;6.70;;
3299;SDS011;1662;49.310;8.134;2024-01-15T12:22:43;9.48;;;7.57;;
3299;SDS011;1662;49.310;8.134;2024-01-15T12:25:09;9.63;;;7.13;;
3299;SDS011;1662;49.310;8.134;2024-01-15T12:27:35;8.13;;;6.75;;
3299;SDS011;1662;49.310;8.134;2024-01-15T12:30:01;12.30;;;7.60;;
3299;SDS011;1662;49.310;8.134;2024-01-15T12:32:27;11.40;;;8.10;;
3299;SDS011;1662;49.310;8.134;2024-01-15T12:34:54;9.77;;;7.00;;
3299;SDS011;1662;49.310;8.134;2024-01-15T12:37:20;11.67;;;8.03;;
3299;SDS011;1662;49.310;8.134;2024-01-15T12:39:46;10.52;;;7.63;;
3299;SDS011;1662;49.310;8.134;2024-01-15T12:42:14;8.05;;;7.25;;
3299;SDS011;1662;49.310;8.134;2024-01-15T12:44:40;9.52;;;7.72;;
3299;SDS011;1662;49.310;8.134;2024-01-15T12:47:06;9.43;;;7.67;;
3299;SDS011;1662;49.310;8.134;2024-01-15T12:49:32;10.50;;;7.77;;
3299;SDS011;1662;49.310;8.134;2024-01-15T12:51:58;9.02;;;7.47;;
3299;SDS011;1662;49.310;8.134;2024-01-15T12:54:25;11.85;;;7.90;;
3299;SDS011;1662;49.310;8.134;2024-01-15T12:56:51;12.65;;;8.63;;
3299;SDS011;1662;49.310;8.134;2024-01-15T12:59:17;9.57;;;7.33;;
3299;SDS011;1662;49.310;8.134;2024-01-15T13:01:43;10.15;;;8.68;;
3299;SDS011;1662;49.310;8.134;2024-01-15T13:04:09;9.27;;;7.97;;
3299;SDS011;1662;49.310;8.134;2024-01-15T13:06:35;10.80;;;8.87;;
3299;SDS011;1662;49.310;8.134;2024-01-15T13:09:02;12.77;;;8.63;;
3299;SDS011;1662;49.310;8.134;2024-01-15T13:11:30;10.93;;;8.98;;
3299;SDS011;1662;49.310;8.134;2024-01-15T13:13:58;9.02;;;7.47;;
3299;SDS011;1662;49.310;8.134;2024-01-15T13:16:24;8.70;;;7.83;;
3299;SDS011;1662;49.310;8.134;2024-01-15T13:18:53;9.18;;;8.18;;
3299;SDS011;1662;49.310;8.134;2024-01-15T13:21:18;9.33;;;8.33;;
3299;SDS011;1662;49.310;8.134;2024-01-15T13:23:44;10.17;;;7.77;;
3299;SDS011;1662;49.310;8.134;2024-01-15T13:26:14;10.65;;;8.05;;
3299;SDS011;1662;49.310;8.134;2024-01-15T13:28:40;9.55;;;8.25;;
3299;SDS011;1662;49.310;8.134;2024-01-15T13:31:05;10.90;;;7.87;;
3299;SDS011;1662;49.310;8.134;2024-01-15T13:33:31;12.13;;;8.23;;
3299;SDS011;1662;49.310;8.134;2024-01-15T13:35:59;10.55;;;8.30;;
3299;SDS011;1662;49.310;8.134;2024-01-15T13:38:25;8.20;;;7.17;;
3299;SDS011;1662;49.310;8.134;2024-01-15T13:40:52;8.02;;;6.55;;
3299;SDS011;1662;49.310;8.134;2024-01-15T13:43:20;9.15;;;7.25;;
3299;SDS011;1662;49.310;8.134;2024-01-15T13:45:46;9.97;;;7.83;;
3299;SDS011;1662;49.310;8.134;2024-01-15T13:48:11;9.93;;;7.23;;
3299;SDS011;1662;49.310;8.134;2024-01-15T13:50:37;10.10;;;7.20;;
3299;SDS011;1662;49.310;8.134;2024-01-15T13:53:03;11.40;;;7.60;;
3299;SDS011;1662;49.310;8.134;2024-01-15T13:55:29;12.23;;;7.85;;
3299;SDS011;1662;49.310;8.134;2024-01-15T13:57:55;10.65;;;8.18;;
3299;SDS011;1662;49.310;8.134;2024-01-15T14:00:20;8.93;;;7.63;;
3299;SDS011;1662;49.310;8.134;2024-01-15T14:02:47;7.70;;;6.93;;
3299;SDS011;1662;49.310;8.134;2024-01-15T14:05:12;9.93;;;7.10;;
3299;SDS011;1662;49.310;8.134;2024-01-15T14:07:39;8.05;;;7.20;;
3299;SDS011;1662;49.310;8.134;2024-01-15T14:10:05;8.53;;;7.00;;
3299;SDS011;1662;49.310;8.134;2024-01-15T14:12:33;8.05;;;6.97;;
3299;SDS011;1662;49.310;8.134;2024-01-15T14:14:59;8.33;;;7.00;;
3299;SDS011;1662;49.310;8.134;2024-01-15T14:17:24;9.50;;;8.10;;
3299;SDS011;1662;49.310;8.134;2024-01-15T14:19:52;9.85;;;6.78;;
3299;SDS011;1662;49.310;8.134;2024-01-15T14:22:18;16.10;;;8.03;;
3299;SDS011;1662;49.310;8.134;2024-01-15T14:24:44;6.90;;;5.77;;
3299;SDS011;1662;49.310;8.134;2024-01-15T14:27:09;6.73;;;6.03;;
3299;SDS011;1662;49.310;8.134;2024-01-15T14:29:35;9.13;;;6.87;;
3299;SDS011;1662;49.310;8.134;2024-01-15T14:32:01;8.18;;;6.47;;
3299;SDS011;1662;49.310;8.134;2024-01-15T14:37:02;7.97;;;6.15;;
3299;SDS011;1662;49.310;8.134;2024-01-15T14:39:28;9.60;;;6.70;;
3299;SDS011;1662;49.310;8.134;2024-01-15T14:41:54;7.90;;;6.00;;
3299;SDS011;1662;49.310;8.134;2024-01-15T14:44:19;7.20;;;5.60;;
3299;SDS011;1662;49.310;8.134;2024-01-15T14:46:46;7.90;;;6.07;;
3299;SDS011;1662;49.310;8.134;2024-01-15T14:49:11;11.33;;;5.83;;
3299;SDS011;1662;49.310;8.134;2024-01-15T14:51:37;7.37;;;5.07;;
3299;SDS011;1662;49.310;8.134;2024-01-15T14:54:03;13.03;;;5.63;;
3299;SDS011;1662;49.310;8.134;2024-01-15T14:56:28;8.13;;;5.97;;
3299;SDS011;1662;49.310;8.134;2024-01-15T14:58:54;5.50;;;5.00;;
3299;SDS011;1662;49.310;8.134;2024-01-15T15:01:20;6.17;;;5.50;;
3299;SDS011;1662;49.310;8.134;2024-01-15T15:03:45;7.40;;;6.53;;
3299;SDS011;1662;49.310;8.134;2024-01-15T15:06:11;8.13;;;6.30;;
3299;SDS011;1662;49.310;8.134;2024-01-15T15:08:37;9.02;;;6.40;;
3299;SDS011;1662;49.310;8.134;2024-01-15T15:11:06;8.73;;;6.00;;
3299;SDS011;1662;49.310;8.134;2024-01-15T15:13:32;9.95;;;6.38;;
3299;SDS011;1662;49.310;8.134;2024-01-15T15:15:59;7.50;;;5.80;;
3299;SDS011;1662;49.310;8.134;2024-01-15T15:18:25;10.90;;;7.07;;
3299;SDS011;1662;49.310;8.134;2024-01-15T15:20:51;8.70;;;6.20;;
3299;SDS011;1662;49.310;8.134;2024-01-15T15:23:17;7.93;;;6.00;;
3299;SDS011;1662;49.310;8.134;2024-01-15T15:25:43;8.55;;;5.65;;